Time;durP1;ratioP1;P1;durP2;ratioP2;P2;SDS_P1;SDS_P2;PMS_P1;PMS_P2;Temp;Humidity;BMP_temperature;BMP_pressure;BME280_temperature;BME280_humidity;BME280_pressure;Samples;Min_cycle;Max_cycle;Signal;HPM_P1;HPM_P2
2022/05/13 00:01:46;;;;;;;8.02;1.83;;;;;;;12.58;56.63;101730.50;4958622;28;20031;-89
2022/05/13 00:04:11;;;;;;;4.53;1.80;;;;;;;12.75;58.63;101744.06;4959558;28;20032;-91
2022/05/13 00:06:37;;;;;;;7.50;1.63;;;;;;;12.71;57.01;101731.81;4961795;28;20490;-90
2022/05/13 00:09:03;;;;;;;7.10;2.03;;;;;;;12.70;56.92;101732.75;4979331;28;20413;-89
2022/05/13 00:11:28;;;;;;;6.55;1.92;;;;;;;12.80;56.84;101743.91;4976526;28;20037;-90
2022/05/13 00:13:54;;;;;;;5.72;2.10;;;;;;;12.74;56.83;101728.22;4969186;28;20117;-90
2022/05/13 00:16:19;;;;;;;7.70;2.10;;;;;;;12.72;56.79;101733.56;4961218;28;20033;-89
2022/05/13 00:18:44;;;;;;;6.20;1.85;;;;;;;12.73;56.93;101737.09;4967730;28;20027;-90
2022/05/13 00:21:10;;;;;;;7.93;2.05;;;;;;;12.75;59.09;101730.81;4977997;28;20392;-90
2022/05/13 00:23:36;;;;;;;7.47;2.63;;;;;;;12.72;57.58;101725.59;4962737;28;20152;-90
2022/05/13 00:26:01;;;;;;;8.43;2.25;;;;;;;12.67;59.82;101716.06;4980026;28;20034;-90
2022/05/13 00:28:26;;;;;;;9.05;2.78;;;;;;;12.61;59.49;101717.16;4963384;28;20569;-89
2022/05/13 00:30:52;;;;;;;5.82;2.90;;;;;;;12.52;58.66;101725.44;4960171;28;20497;-90
2022/05/13 00:33:19;;;;;;;7.57;2.53;;;;;;;12.51;58.86;101735.19;4978469;28;20026;-90
2022/05/13 00:35:44;;;;;;;9.05;2.92;;;;;;;12.44;58.63;101717.72;4979223;28;20027;-90
2022/05/13 00:38:10;;;;;;;9.73;2.55;;;;;;;12.41;59.80;101732.91;4976737;28;20088;-89
2022/05/13 00:40:36;;;;;;;7.50;2.60;;;;;;;12.36;59.75;101722.44;4963369;28;20027;-89
2022/05/13 00:43:05;;;;;;;10.80;2.97;;;;;;;12.37;59.30;101720.66;4980472;28;20529;-89
2022/05/13 00:45:32;;;;;;;7.20;3.13;;;;;;;12.37;60.02;101725.97;4960779;28;20037;-89
2022/05/13 00:48:01;;;;;;;13.48;2.72;;;;;;;12.31;59.67;101715.53;4973654;28;20438;-90
2022/05/13 00:50:30;;;;;;;9.43;2.88;;;;;;;12.36;59.55;101726.88;4966359;28;20031;-90
2022/05/13 00:52:55;;;;;;;8.18;3.15;;;;;;;12.33;59.74;101725.19;4979647;28;20568;-89
2022/05/13 00:55:31;;;;;;;9.98;2.90;;;;;;;12.41;59.37;101727.59;4977793;28;20022;-90
2022/05/13 00:57:58;;;;;;;12.00;3.28;;;;;;;12.31;60.69;101731.44;4961408;28;20048;-89
2022/05/13 01:00:24;;;;;;;7.97;2.97;;;;;;;12.24;60.12;101722.84;4980210;28;20042;-90
2022/05/13 01:02:49;;;;;;;9.18;2.83;;;;;;;12.24;59.55;101717.53;4979863;28;20031;-90
2022/05/13 01:05:17;;;;;;;8.15;3.10;;;;;;;12.22;60.67;101717.59;4958473;28;20085;-90
2022/05/13 01:07:42;;;;;;;8.32;3.65;;;;;;;12.19;60.32;101709.72;4961068;28;20405;-90
2022/05/13 01:10:13;;;;;;;8.15;3.00;;;;;;;12.20;59.64;101724.72;4978268;28;20030;-91
2022/05/13 01:12:42;;;;;;;9.77;2.83;;;;;;;12.08;60.03;101711.00;4960418;28;20596;-89
2022/05/13 01:15:17;;;;;;;5.38;2.53;;;;;;;12.12;60.13;101721.44;4979164;28;20050;-90
2022/05/13 01:20:46;;;;;;;3.70;2.40;;;;;;;11.96;59.77;101721.06;4927572;29;20032;-90
2022/05/13 01:23:17;;;;;;;6.15;2.17;;;;;;;11.93;59.37;101722.94;4970423;28;20038;-90
2022/05/13 01:25:49;;;;;;;5.78;2.17;;;;;;;11.91;59.78;101722.13;4975714;28;20030;-91
2022/05/13 01:28:18;;;;;;;7.20;2.63;;;;;;;11.92;59.38;101716.78;4961184;28;20038;-90
2022/05/13 01:30:49;;;;;;;5.57;2.38;;;;;;;11.85;59.38;101709.09;4975856;28;20342;-90
2022/05/13 01:33:16;;;;;;;6.05;2.10;;;;;;;11.86;59.13;101705.53;4965604;28;20031;-90
2022/05/13 01:35:44;;;;;;;3.95;1.95;;;;;;;11.90;59.45;101723.06;4960268;28;20508;-91
2022/05/13 01:38:11;;;;;;;8.30;2.28;;;;;;;11.80;59.51;101718.91;4960590;28;20403;-90
2022/05/13 01:40:36;;;;;;;6.18;2.20;;;;;;;11.78;59.21;101726.06;4981055;28;20046;-90
2022/05/13 01:43:02;;;;;;;5.45;1.95;;;;;;;11.82;59.53;101727.69;4962810;28;20124;-89
2022/05/13 01:45:27;;;;;;;4.45;2.25;;;;;;;11.70;59.15;101716.56;4978603;28;20022;-90
2022/05/13 01:47:53;;;;;;;7.43;2.13;;;;;;;11.73;59.08;101727.06;4977980;28;20421;-91
2022/05/13 01:50:18;;;;;;;4.05;2.00;;;;;;;11.66;59.47;101719.38;4972898;28;20034;-90
2022/05/13 01:52:44;;;;;;;6.45;1.83;;;;;;;11.78;59.15;101726.06;4977319;28;20030;-90
2022/05/13 01:55:09;;;;;;;7.13;2.60;;;;;;;11.81;59.99;101723.31;4978330;28;20053;-90
2022/05/13 01:57:34;;;;;;;5.00;1.80;;;;;;;11.84;58.94;101713.50;4960118;28;20077;-91
2022/05/13 02:00:01;;;;;;;5.97;2.00;;;;;;;11.96;59.22;101730.81;4960547;28;20015;-91
2022/05/13 02:02:26;;;;;;;5.50;2.30;;;;;;;11.97;59.51;101724.59;4975894;28;20042;-91
2022/05/13 02:04:53;;;;;;;6.63;2.65;;;;;;;11.93;59.21;101722.94;4961009;28;20037;-91
2022/05/13 02:07:18;;;;;;;6.72;2.10;;;;;;;12.00;58.88;101730.66;4977932;28;20245;-91
2022/05/13 02:09:43;;;;;;;4.90;1.88;;;;;;;12.03;58.97;101719.13;4980406;28;20121;-90
2022/05/13 02:12:09;;;;;;;5.90;1.60;;;;;;;11.98;59.27;101718.38;4976488;28;20437;-91
2022/05/13 02:14:34;;;;;;;13.02;2.28;;;;;;;12.00;58.73;101708.59;4960022;28;20042;-91
2022/05/13 02:17:00;;;;;;;4.63;1.80;;;;;;;11.97;59.55;101717.50;4958817;28;20449;-91
2022/05/13 02:19:25;;;;;;;6.82;1.60;;;;;;;11.97;60.63;101722.81;4978148;28;20386;-90
2022/05/13 02:21:50;;;;;;;6.05;2.00;;;;;;;11.92;59.75;101721.22;4963844;28;20030;-91
2022/05/13 02:24:16;;;;;;;5.88;2.00;;;;;;;11.80;59.89;101718.91;4957873;28;20030;-91
2022/05/13 02:26:41;;;;;;;5.30;1.92;;;;;;;11.67;59.90;101708.72;4976493;28;20037;-90
2022/05/13 02:29:06;;;;;;;7.45;2.22;;;;;;;11.73;59.95;101708.50;4957949;28;20631;-91
2022/05/13 02:31:32;;;;;;;7.50;1.98;;;;;;;11.64;60.33;101716.75;4959922;28;20511;-93
2022/05/13 02:33:58;;;;;;;4.97;2.22;;;;;;;11.70;60.95;101719.22;4975930;28;20043;-91
2022/05/13 02:36:24;;;;;;;5.50;2.08;;;;;;;11.82;60.57;101717.09;4963857;28;20026;-91
2022/05/13 02:38:49;;;;;;;3.50;2.13;;;;;;;11.78;60.75;101704.84;4959163;28;20034;-91
2022/05/13 02:41:15;;;;;;;4.78;2.28;;;;;;;11.82;60.68;101717.09;4975355;28;20089;-91
2022/05/13 02:43:41;;;;;;;7.45;2.30;;;;;;;11.84;61.90;101720.59;4963563;28;20038;-90
2022/05/13 02:46:08;;;;;;;6.53;2.00;;;;;;;11.74;61.55;101712.88;4962032;28;20089;-92
2022/05/13 02:48:33;;;;;;;9.38;2.30;;;;;;;11.84;61.41;101715.28;4960212;28;20046;-91
2022/05/13 02:50:59;;;;;;;8.10;2.20;;;;;;;11.84;60.86;101702.91;4975461;28;20109;-91
2022/05/13 02:53:25;;;;;;;8.23;1.90;;;;;;;11.80;61.31;101703.00;4961269;28;20054;-90
2022/05/13 02:55:51;;;;;;;5.93;1.90;;;;;;;11.80;61.06;101700.38;4973971;28;21052;-91
2022/05/13 02:58:17;;;;;;;6.72;2.05;;;;;;;11.80;61.62;101700.38;4962183;28;20038;-92
2022/05/13 03:00:44;;;;;;;5.60;2.20;;;;;;;11.79;61.22;101699.50;4974856;28;20476;-91
2022/05/13 03:03:10;;;;;;;9.32;2.30;;;;;;;11.79;61.70;101703.94;4959200;28;20041;-91
2022/05/13 03:05:36;;;;;;;10.40;2.67;;;;;;;11.82;62.15;101711.78;4977076;28;20260;-90
2022/05/13 03:08:02;;;;;;;8.63;2.13;;;;;;;11.75;61.80;101701.41;4961696;28;20070;-92
2022/05/13 03:10:33;;;;;;;5.63;2.10;;;;;;;11.92;65.19;101721.22;4959223;28;20062;-91
2022/05/13 03:12:59;;;;;;;14.00;2.70;;;;;;;11.99;61.84;101718.34;4974785;28;20393;-92
2022/05/13 03:15:26;;;;;;;6.50;2.35;;;;;;;12.02;61.89;101714.69;4958454;28;20030;-91
2022/05/13 03:17:51;;;;;;;8.93;2.22;;;;;;;12.06;62.20;101715.47;4976351;28;20062;-91
2022/05/13 03:20:19;;;;;;;7.93;2.17;;;;;;;12.06;61.72;101711.03;4978916;28;20106;-92
2022/05/13 03:22:45;;;;;;;10.57;2.40;;;;;;;12.01;62.07;101699.72;4976145;28;20508;-90
2022/05/13 03:25:10;;;;;;;7.90;2.95;;;;;;;12.05;63.25;101706.66;4960837;28;20113;-92
2022/05/13 03:27:36;;;;;;;8.23;2.80;;;;;;;11.96;62.58;101691.91;4958391;28;20031;-91
2022/05/13 03:30:03;;;;;;;9.63;3.15;;;;;;;11.95;62.64;101694.63;4971953;28;20046;-91
2022/05/13 03:32:28;;;;;;;10.35;2.58;;;;;;;12.00;62.87;101704.16;4975866;28;20578;-92
2022/05/13 03:34:53;;;;;;;13.50;3.35;;;;;;;11.92;63.38;101684.97;4977377;28;20034;-90
2022/05/13 03:37:19;;;;;;;11.95;2.83;;;;;;;11.90;63.48;101693.91;4974236;28;20382;-91
2022/05/13 03:39:44;;;;;;;8.75;2.95;;;;;;;11.89;64.17;101694.81;4976394;28;20718;-90
2022/05/13 03:42:09;;;;;;;7.03;2.75;;;;;;;11.88;63.85;101701.03;4977580;28;20037;-90
2022/05/13 03:44:36;;;;;;;10.98;3.28;;;;;;;11.87;63.42;101708.13;4976972;28;20486;-91
2022/05/13 03:47:03;;;;;;;8.88;3.45;;;;;;;11.71;64.76;101697.09;4976702;28;20031;-90
2022/05/13 03:49:28;;;;;;;8.20;3.03;;;;;;;11.71;64.95;101699.75;4957682;28;20178;-90
2022/05/13 03:51:53;;;;;;;12.25;3.28;;;;;;;11.63;64.42;101701.78;4959859;28;20130;-91
2022/05/13 03:54:19;;;;;;;11.00;3.90;;;;;;;11.49;65.09;101691.59;4958466;28;20169;-92
2022/05/13 03:56:44;;;;;;;9.73;3.40;;;;;;;11.54;65.62;101687.94;4964849;28;20088;-91
2022/05/13 03:59:09;;;;;;;12.32;3.50;;;;;;;11.56;65.43;101699.34;4972460;28;20109;-90
2022/05/13 04:01:35;;;;;;;10.85;3.22;;;;;;;11.48;65.85;101694.31;4960327;28;20043;-91
2022/05/13 04:04:00;;;;;;;5.45;3.33;;;;;;;11.52;65.20;101695.94;4964777;28;20030;-92
2022/05/13 04:09:09;;;;;;;22.83;4.18;;;;;;;11.58;65.91;101713.44;4975694;28;20033;-90
2022/05/13 04:11:37;;;;;;;11.02;3.72;;;;;;;11.48;65.51;101694.31;4973949;28;20039;-91
2022/05/13 04:16:52;;;;;;;8.80;3.97;;;;;;;11.50;66.43;101706.56;4973975;28;20425;-90
2022/05/13 04:19:18;;;;;;;7.85;3.72;;;;;;;11.42;66.11;101716.53;4958555;28;20045;-91
2022/05/13 04:21:45;;;;;;;12.95;4.00;;;;;;;11.29;66.80;101701.94;4958686;28;20030;-90
2022/05/13 04:24:14;;;;;;;9.60;3.50;;;;;;;11.26;66.84;101691.41;4957825;28;20402;-91
2022/05/13 04:26:39;;;;;;;12.82;3.83;;;;;;;11.31;66.96;101704.53;4975163;28;20496;-91
2022/05/13 04:29:06;;;;;;;11.13;3.75;;;;;;;11.34;66.44;101715.03;4960539;28;20022;-91
2022/05/13 04:31:35;;;;;;;9.38;3.90;;;;;;;11.31;66.57;101707.16;4957134;28;20416;-92
2022/05/13 04:34:01;;;;;;;12.50;4.25;;;;;;;11.28;67.58;101708.09;4974107;28;20023;-90
2022/05/13 04:36:27;;;;;;;9.32;3.67;;;;;;;11.29;67.19;101707.22;4974851;28;20057;-91
2022/05/13 04:38:53;;;;;;;17.13;4.63;;;;;;;11.38;67.00;101724.63;4972311;28;20023;-91
2022/05/13 04:44:04;;;;;;;15.18;4.63;;;;;;;11.45;66.74;101708.50;4972547;28;20061;-91
2022/05/13 04:46:36;;;;;;;12.75;3.80;;;;;;;11.53;65.81;101724.16;4972391;28;20042;-90
2022/05/13 04:49:03;;;;;;;8.27;4.22;;;;;;;11.63;66.20;101735.34;4976185;28;20059;-91
2022/05/13 04:51:29;;;;;;;11.52;3.85;;;;;;;11.79;65.76;101733.94;4978761;28;20109;-91
2022/05/13 04:53:55;;;;;;;13.52;3.90;;;;;;;11.92;66.08;101742.41;4978761;28;20065;-90
2022/05/13 04:56:22;;;;;;;14.68;4.18;;;;;;;12.08;65.54;101742.81;4980004;28;20034;-90
2022/05/13 04:58:48;;;;;;;13.85;4.10;;;;;;;12.20;65.25;101740.63;4968213;28;20046;-90
2022/05/13 05:01:15;;;;;;;10.60;4.10;;;;;;;12.23;65.16;101737.88;4980244;28;20400;-90
2022/05/13 05:03:43;;;;;;;16.95;4.65;;;;;;;12.16;65.05;101733.69;4956126;28;20064;-89
2022/05/13 05:06:09;;;;;;;13.32;4.40;;;;;;;12.23;65.38;101751.13;4979498;28;20489;-91
2022/05/13 05:08:36;;;;;;;17.27;4.40;;;;;;;12.28;64.15;101750.13;4961285;28;20030;-91
2022/05/13 05:11:05;;;;;;;9.48;4.13;;;;;;;12.35;64.47;101754.28;4958681;28;20030;-91
2022/05/13 05:13:34;;;;;;;9.75;3.60;;;;;;;12.37;64.65;101758.63;4960331;28;20219;-91
2022/05/13 05:16:00;;;;;;;12.38;4.07;;;;;;;12.34;64.67;101761.38;4979421;28;20062;-90
2022/05/13 05:18:26;;;;;;;11.68;3.92;;;;;;;12.42;64.61;101754.03;4961245;28;20525;-91
2022/05/13 05:20:52;;;;;;;12.55;4.10;;;;;;;12.56;64.09;101771.28;4959172;28;20054;-91
2022/05/13 05:23:25;;;;;;;13.30;3.55;;;;;;;12.59;64.28;101774.72;4961873;28;20433;-91
2022/05/13 05:25:51;;;;;;;13.85;4.45;;;;;;;12.58;64.28;101772.97;4960927;28;20134;-92
2022/05/13 05:28:16;;;;;;;12.25;4.10;;;;;;;12.56;63.84;101766.84;4962024;28;20034;-91
2022/05/13 05:30:43;;;;;;;13.65;4.30;;;;;;;12.61;63.78;101764.91;4978027;28;20038;-91
2022/05/13 05:33:09;;;;;;;11.95;4.07;;;;;;;12.56;63.88;101774.81;4962921;28;20033;-91
2022/05/13 05:35:35;;;;;;;9.63;4.30;;;;;;;12.64;64.51;101772.78;4965981;28;20038;-90
2022/05/13 05:38:00;;;;;;;10.27;3.85;;;;;;;12.76;63.60;101787.38;4980431;28;21082;-92
2022/05/13 05:40:26;;;;;;;12.40;3.80;;;;;;;12.67;64.29;101793.00;4960615;28;20383;-93
2022/05/13 05:42:51;;;;;;;10.82;3.45;;;;;;;12.75;63.29;101790.97;4960328;28;20500;-91
2022/05/13 05:45:19;;;;;;;12.48;4.18;;;;;;;12.86;63.62;101798.56;4960579;28;20037;-91
2022/05/13 05:47:44;;;;;;;14.55;4.63;;;;;;;12.94;63.13;101804.47;4977304;28;20127;-91
2022/05/13 05:50:15;;;;;;;10.85;4.15;;;;;;;12.96;63.34;101819.44;4960146;28;20510;-91
2022/05/13 05:52:41;;;;;;;15.77;4.45;;;;;;;12.99;63.42;101806.03;4960568;28;20078;-91
2022/05/13 05:58:07;;;;;;;18.70;4.55;;;;;;;13.19;62.87;101823.94;4979337;28;20108;-91
2022/05/13 06:00:36;;;;;;;13.23;4.90;;;;;;;13.23;62.85;101817.63;4975898;28;20504;-90
2022/05/13 06:03:01;;;;;;;12.50;3.60;;;;;;;13.35;62.48;101820.78;4957570;28;20061;-90
2022/05/13 06:05:27;;;;;;;9.27;3.55;;;;;;;13.43;62.67;101821.34;4961575;28;20062;-90
2022/05/13 06:07:58;;;;;;;12.07;4.13;;;;;;;13.47;61.86;101829.16;4966820;28;20080;-90
2022/05/13 06:10:25;;;;;;;13.15;3.80;;;;;;;13.48;62.02;101828.25;4964481;28;20408;-91
2022/05/13 06:12:50;;;;;;;10.77;4.00;;;;;;;13.63;61.65;101823.28;4960850;28;20038;-90
2022/05/13 06:15:15;;;;;;;9.13;4.30;;;;;;;13.82;61.53;101819.00;4965654;28;20038;-90
2022/05/13 06:17:49;;;;;;;11.63;4.22;;;;;;;13.91;61.26;101829.31;4973979;28;20046;-90
2022/05/13 06:20:17;;;;;;;11.93;4.28;;;;;;;14.04;61.42;101835.03;4978699;28;20031;-91
2022/05/13 06:22:42;;;;;;;11.30;4.20;;;;;;;14.09;61.00;101829.53;4958922;28;20038;-90
2022/05/13 06:25:10;;;;;;;17.65;4.50;;;;;;;14.02;61.61;101829.75;4959022;28;20072;-91
2022/05/13 06:27:36;;;;;;;15.43;4.85;;;;;;;14.00;61.56;101842.25;4962021;28;20104;-92
2022/05/13 06:30:05;;;;;;;11.38;4.80;;;;;;;13.97;61.51;101839.69;4974933;28;20023;-90
2022/05/13 06:32:30;;;;;;;16.77;5.28;;;;;;;13.97;62.02;101837.03;4977761;28;20114;-91
2022/05/13 06:34:55;;;;;;;13.57;5.43;;;;;;;14.15;61.63;101848.75;4956559;28;20120;-91
2022/05/13 06:37:20;;;;;;;13.45;5.55;;;;;;;14.27;61.85;101844.75;4978415;28;20456;-91
2022/05/13 06:39:46;;;;;;;13.38;5.35;;;;;;;14.44;60.97;101839.63;4977067;28;20035;-91
2022/05/13 06:42:11;;;;;;;14.63;5.50;;;;;;;14.63;60.14;101846.88;4955584;28;20073;-91
2022/05/13 06:44:36;;;;;;;11.48;5.28;;;;;;;14.71;60.06;101844.78;4977134;28;20064;-92
2022/05/13 06:47:02;;;;;;;16.90;5.35;;;;;;;14.73;60.02;101848.22;4958299;28;20903;-92
2022/05/13 06:49:27;;;;;;;15.55;4.78;;;;;;;14.76;59.78;101856.09;4959103;28;20038;-91
2022/05/13 06:51:53;;;;;;;14.07;4.95;;;;;;;14.75;60.35;101852.56;4975360;28;20141;-91
2022/05/13 06:54:18;;;;;;;17.65;4.85;;;;;;;14.91;60.10;101849.25;4976953;28;20030;-91
2022/05/13 06:56:43;;;;;;;14.73;5.00;;;;;;;15.11;59.16;101851.06;4959923;28;20037;-91
2022/05/13 06:59:09;;;;;;;13.23;4.70;;;;;;;15.16;58.65;101849.09;4958126;28;20440;-91
2022/05/13 07:01:36;;;;;;;15.05;5.47;;;;;;;15.15;59.79;101853.53;4959866;28;20097;-91
2022/05/13 07:04:01;;;;;;;14.75;5.38;;;;;;;15.14;59.33;101849.16;4957670;28;20860;-92
2022/05/13 07:06:27;;;;;;;18.08;5.35;;;;;;;15.15;59.16;101844.69;4976656;28;20137;-92
2022/05/13 07:08:52;;;;;;;16.00;5.50;;;;;;;15.22;59.27;101852.34;4977016;28;20100;-91
2022/05/13 07:11:18;;;;;;;16.52;6.05;;;;;;;15.37;59.11;101861.47;4977469;28;20057;-90
2022/05/13 07:13:44;;;;;;;12.32;5.40;;;;;;;15.37;58.46;101848.16;4976338;28;20062;-91
2022/05/13 07:16:10;;;;;;;13.10;5.68;;;;;;;15.46;59.21;101855.75;4974377;28;20057;-91
2022/05/13 07:18:36;;;;;;;15.98;5.95;;;;;;;15.71;58.25;101865.31;4974598;28;20039;-90
2022/05/13 07:21:02;;;;;;;15.13;5.60;;;;;;;15.88;58.00;101861.91;4973516;28;20053;-90
2022/05/13 07:23:29;;;;;;;11.75;6.55;;;;;;;15.97;57.58;101856.16;4956447;28;20453;-90
2022/05/13 07:25:55;;;;;;;14.30;6.07;;;;;;;15.98;57.23;101872.06;4978232;28;20026;-91
2022/05/13 07:28:20;;;;;;;14.45;6.80;;;;;;;15.90;57.47;101860.03;4976684;28;20542;-91
2022/05/13 07:30:47;;;;;;;14.50;6.63;;;;;;;16.16;57.01;101858.81;4978260;28;20482;-91
2022/05/13 07:33:13;;;;;;;12.98;6.63;;;;;;;16.39;56.27;101863.06;4977110;28;20023;-93
2022/05/13 07:35:38;;;;;;;9.13;6.57;;;;;;;16.58;56.02;101853.22;4957339;28;20600;-90
2022/05/13 07:38:06;;;;;;;11.40;6.15;;;;;;;16.80;55.22;101856.59;4961019;28;20038;-90
2022/05/13 07:43:15;;;;;;;11.60;5.70;;;;;;;17.41;53.49;101881.13;4974259;28;20045;-90
2022/05/13 07:45:40;;;;;;;14.10;5.65;;;;;;;17.63;52.36;101865.69;4958495;28;20482;-92
2022/05/13 07:48:06;;;;;;;10.70;5.68;;;;;;;17.89;51.24;101869.63;4974221;28;20026;-92
2022/05/13 07:50:31;;;;;;;10.35;5.43;;;;;;;18.09;50.49;101868.53;4961225;28;20034;-91
2022/05/13 07:52:57;;;;;;;11.73;5.35;;;;;;;18.03;50.55;101863.53;4959947;28;20034;-90
2022/05/13 07:55:22;;;;;;;12.45;5.65;;;;;;;17.88;50.89;101883.13;4958438;28;20046;-91
2022/05/13 07:57:48;;;;;;;13.85;5.70;;;;;;;18.01;50.43;101878.81;4958839;28;20053;-91
2022/05/13 08:00:25;;;;;;;14.90;7.18;;;;;;;18.10;51.51;101875.66;4977997;28;20473;-90
2022/05/13 08:02:56;;;;;;;11.90;6.13;;;;;;;18.00;51.22;101883.31;4973651;28;20041;-89
2022/05/13 08:05:22;;;;;;;15.93;6.03;;;;;;;17.94;50.64;101886.31;4960272;28;20513;-90
2022/05/13 08:07:48;;;;;;;15.32;6.57;;;;;;;17.53;50.94;101893.81;4955218;28;20034;-89
2022/05/13 08:10:14;;;;;;;12.57;5.43;;;;;;;17.10;52.56;101880.00;4973218;28;20042;-91
2022/05/13 08:12:40;;;;;;;9.07;4.63;;;;;;;17.01;52.03;101891.16;4956431;28;20027;-90
2022/05/13 08:15:06;;;;;;;9.00;4.88;;;;;;;16.99;53.68;101890.41;4974863;28;20421;-91
2022/05/13 08:17:33;;;;;;;10.07;4.93;;;;;;;17.02;52.79;101890.22;4961590;28;21110;-90
2022/05/13 08:19:59;;;;;;;13.18;4.85;;;;;;;16.95;52.11;101897.69;4975130;28;20022;-89
2022/05/13 08:22:24;;;;;;;11.52;4.82;;;;;;;16.98;51.57;101894.00;4977345;28;20042;-90
2022/05/13 08:24:50;;;;;;;11.30;4.70;;;;;;;17.08;51.93;101900.63;4977615;28;20394;-90
2022/05/13 08:27:15;;;;;;;11.32;5.15;;;;;;;17.07;51.56;101898.91;4958162;28;20359;-90
2022/05/13 08:29:40;;;;;;;10.88;4.70;;;;;;;17.17;51.38;101900.16;4964046;28;20015;-89
2022/05/13 08:32:06;;;;;;;9.18;4.03;;;;;;;17.37;50.62;101890.25;4973801;28;20029;-90
2022/05/13 08:34:31;;;;;;;9.80;4.57;;;;;;;17.31;50.41;101892.28;4959270;28;21266;-89
2022/05/13 08:36:56;;;;;;;7.97;3.80;;;;;;;17.32;50.43;101904.69;4974143;28;21055;-89
2022/05/13 08:39:22;;;;;;;9.18;4.07;;;;;;;17.96;48.52;101907.66;4958424;28;20027;-89
2022/05/13 08:41:57;;;;;;;10.48;4.55;;;;;;;18.64;46.76;101902.06;4960582;28;20015;-89
2022/05/13 08:44:23;;;;;;;13.85;4.20;;;;;;;19.40;45.35;101877.97;4972816;28;20580;-90
2022/05/13 08:46:56;;;;;;;10.60;3.80;;;;;;;19.50;45.42;101895.25;4965638;28;20121;-90
2022/05/13 08:49:35;;;;;;;12.88;3.45;;;;;;;18.94;46.14;101905.72;4975960;28;20035;-90
2022/05/13 08:55:09;;;;;;;6.50;3.10;;;;;;;18.22;46.24;101907.06;4974901;28;20049;-90
2022/05/13 08:57:39;;;;;;;8.18;3.72;;;;;;;18.15;47.20;101905.69;4965501;28;20106;-89
2022/05/13 09:00:11;;;;;;;9.90;3.47;;;;;;;18.06;47.58;101914.22;4956842;28;20027;-89
2022/05/13 09:02:47;;;;;;;8.68;3.50;;;;;;;18.23;47.40;101916.84;4976513;28;20405;-89
2022/05/13 09:05:28;;;;;;;10.00;3.15;;;;;;;18.26;47.48;101913.97;4976872;28;20558;-89
2022/05/13 09:07:56;;;;;;;13.07;3.40;;;;;;;18.54;46.93;101904.41;4961976;28;20093;-89
2022/05/13 09:10:24;;;;;;;8.10;3.00;;;;;;;18.93;45.55;101898.63;4957941;28;20030;-89
2022/05/13 09:12:58;;;;;;;10.57;3.38;;;;;;;19.36;43.36;101913.03;4952777;28;20061;-89
2022/05/13 09:15:46;;;;;;;9.20;3.30;;;;;;;19.28;44.04;101911.75;4971799;28;20034;-88
2022/05/13 09:18:23;;;;;;;7.22;2.80;;;;;;;19.27;44.54;101910.91;4972776;28;20112;-90
2022/05/13 09:20:51;;;;;;;7.35;3.83;;;;;;;19.42;44.85;101900.19;4959627;28;20018;-89
2022/05/13 09:23:18;;;;;;;7.10;3.72;;;;;;;19.42;43.69;101903.75;4957261;28;20041;-91
2022/05/13 09:26:01;;;;;;;5.43;3.10;;;;;;;19.57;44.85;101900.13;4973145;28;20038;-89
2022/05/13 09:28:28;;;;;;;9.05;2.50;;;;;;;20.11;42.47;101911.09;4961984;28;20026;-88
2022/05/13 09:31:03;;;;;;;4.97;2.90;;;;;;;20.33;40.66;101915.09;4977042;28;20538;-90
2022/05/13 09:33:39;;;;;;;4.85;2.65;;;;;;;20.51;40.63;101924.69;4972971;28;20031;-89
2022/05/13 09:36:30;;;;;;;8.00;2.78;;;;;;;20.79;41.19;101922.88;4960171;28;20441;-88
2022/05/13 09:38:58;;;;;;;7.82;3.00;;;;;;;20.72;39.96;101911.69;4974322;28;20285;-88
2022/05/13 09:41:30;;;;;;;9.45;2.60;;;;;;;20.99;39.63;101926.97;4955204;28;20398;-88
2022/05/13 09:44:03;;;;;;;7.35;2.97;;;;;;;20.89;38.76;101918.66;4959100;28;20129;-88
2022/05/13 09:46:35;;;;;;;6.25;2.13;;;;;;;20.64;39.33;101931.00;4973601;28;20139;-89
2022/05/13 09:49:26;;;;;;;5.72;1.80;;;;;;;20.83;38.69;101927.97;4975259;28;20046;-89
2022/05/13 09:52:12;;;;;;;5.88;2.55;;;;;;;21.08;39.24;101918.28;4963602;28;20038;-91
2022/05/13 09:54:40;;;;;;;7.05;2.22;;;;;;;21.00;37.91;101918.78;4978070;28;20034;-90
2022/05/13 09:57:11;;;;;;;8.10;2.40;;;;;;;20.94;38.71;101921.00;4961392;28;20026;-90
2022/05/13 09:59:41;;;;;;;9.98;2.58;;;;;;;21.14;37.87;101916.03;4973037;28;20189;-90
2022/05/13 10:02:29;;;;;;;10.02;3.08;;;;;;;20.91;38.82;101921.22;4978340;28;20089;-90
2022/05/13 10:05:12;;;;;;;6.15;2.40;;;;;;;20.47;40.02;101931.25;4974442;28;20442;-90
2022/05/13 10:07:49;;;;;;;7.75;2.55;;;;;;;20.13;40.36;101927.13;4977739;28;20505;-90
2022/05/13 10:16:01;;;;;;;8.35;2.53;;;;;;;20.65;39.70;101923.78;4978962;28;20181;-90
2022/05/13 10:18:32;;;;;;;8.15;2.50;;;;;;;20.86;38.69;101919.72;4973186;28;20038;-90
2022/05/13 10:21:13;;;;;;;7.53;2.65;;;;;;;21.32;38.15;101911.28;4971353;28;20030;-90
2022/05/13 10:23:54;;;;;;;6.28;2.72;;;;;;;21.15;38.32;101925.81;4979864;28;20070;-90
2022/05/13 10:26:24;;;;;;;7.03;2.35;;;;;;;21.11;38.72;101920.75;4957095;28;20030;-90
2022/05/13 10:28:56;;;;;;;5.22;2.10;;;;;;;20.78;37.79;101927.41;4960859;28;20035;-90
2022/05/13 10:31:25;;;;;;;9.95;2.33;;;;;;;20.48;38.63;101932.97;4969288;28;20116;-90
2022/05/13 10:34:17;;;;;;;7.40;2.60;;;;;;;20.25;39.87;101938.91;4975893;28;20053;-90
2022/05/13 10:36:54;;;;;;;12.02;2.67;;;;;;;20.05;39.95;101927.63;4945346;28;20039;-90
2022/05/13 10:39:44;;;;;;;5.80;2.17;;;;;;;19.92;40.36;101928.47;4974841;28;20034;-90
2022/05/13 10:42:19;;;;;;;4.90;2.30;;;;;;;20.46;38.85;101925.91;4976785;28;20022;-90
2022/05/13 10:44:47;;;;;;;6.03;2.20;;;;;;;20.72;37.44;101927.81;4957062;28;20370;-90
2022/05/13 10:47:15;;;;;;;5.07;1.95;;;;;;;20.60;38.61;101926.78;4972134;28;20034;-90
2022/05/13 10:49:43;;;;;;;5.68;2.40;;;;;;;20.56;38.87;101927.06;4972089;28;20072;-89
2022/05/13 10:52:42;;;;;;;4.65;2.50;;;;;;;20.44;38.87;101925.16;4955536;28;20023;-90
2022/05/13 10:55:21;;;;;;;7.95;2.65;;;;;;;20.34;39.48;101923.06;4978390;28;20034;-91
2022/05/13 10:58:18;;;;;;;8.55;2.05;;;;;;;21.06;36.79;101930.94;4972869;28;20472;-91
2022/05/13 11:00:55;;;;;;;4.88;2.17;;;;;;;21.67;35.78;101934.88;4935045;28;20086;-90
2022/05/13 11:03:52;;;;;;;5.65;2.45;;;;;;;21.79;35.97;101919.72;4978371;28;20041;-91
2022/05/13 11:06:33;;;;;;;8.00;2.30;;;;;;;21.78;35.53;101932.31;4975229;28;20046;-89
2022/05/13 11:09:26;;;;;;;7.18;2.10;;;;;;;21.75;35.85;101918.19;4975880;28;20068;-90
2022/05/13 11:11:56;;;;;;;6.63;2.70;;;;;;;21.96;36.02;101927.44;4976091;28;20096;-91
2022/05/13 11:14:46;;;;;;;8.70;2.63;;;;;;;21.69;36.27;101935.63;4973011;28;20117;-89
2022/05/13 11:17:14;;;;;;;7.18;2.30;;;;;;;21.35;35.83;101927.19;4958680;28;20389;-90
2022/05/13 11:19:45;;;;;;;7.57;2.35;;;;;;;21.18;36.80;101924.75;4973911;28;20078;-91
2022/05/13 11:22:44;;;;;;;6.15;2.55;;;;;;;21.38;36.80;101940.44;4975491;28;20022;-91
2022/05/13 11:25:55;;;;;;;8.98;2.22;;;;;;;21.71;35.18;101927.44;4962904;28;20042;-90
2022/05/13 11:28:51;;;;;;;4.03;2.05;;;;;;;21.74;35.56;101928.09;4976902;28;20042;-91
2022/05/13 11:31:16;;;;;;;5.43;2.40;;;;;;;21.74;36.12;101938.88;4970952;28;20035;-89
2022/05/13 11:33:46;;;;;;;10.02;2.20;;;;;;;21.35;35.20;101920.94;4958098;28;20104;-90
2022/05/13 11:36:18;;;;;;;6.90;2.03;;;;;;;21.15;35.67;101941.09;4973859;28;20030;-90
2022/05/13 11:39:10;;;;;;;6.20;2.53;;;;;;;21.14;36.90;101939.38;4955380;28;20049;-90
2022/05/13 11:41:53;;;;;;;6.32;2.33;;;;;;;21.19;37.23;101937.25;4974404;28;20026;-90
2022/05/13 11:44:29;;;;;;;8.48;2.38;;;;;;;21.37;37.14;101927.09;4975741;28;21722;-90
2022/05/13 11:47:04;;;;;;;4.63;2.53;;;;;;;21.60;36.99;101925.50;4974144;28;20052;-90
2022/05/13 11:49:34;;;;;;;6.45;2.42;;;;;;;22.50;35.50;101918.22;4958935;28;20413;-89
2022/05/13 11:52:11;;;;;;;10.70;2.80;;;;;;;23.05;35.69;101922.25;4972389;28;20393;-90
2022/05/13 11:54:37;;;;;;;6.80;2.60;;;;;;;22.52;34.93;101924.34;4971089;28;20073;-91
2022/05/13 11:57:23;;;;;;;6.45;2.58;;;;;;;22.47;34.80;101930.06;4958533;28;20433;-91